Time;durP1;ratioP1;P1;durP2;ratioP2;P2;SDS_P1;SDS_P2;PMS_P1;PMS_P2;Temp;Humidity;BMP_temperature;BMP_pressure;BME280_temperature;BME280_humidity;BME280_pressure;Samples;Min_cycle;Max_cycle;Signal;HPM_P1;HPM_P2
2021/04/29 00:01:25;;;;;;;0.43;0.43;;;16.80;50.90;;;;;;4158049;28;20482;-46
2021/04/29 00:03:45;;;;;;;0.00;0.00;;;16.80;51.10;;;;;;4141698;28;20049;-45
2021/04/29 00:06:12;;;;;;;0.52;0.52;;;16.70;51.40;;;;;;4157500;28;20469;-47
2021/04/29 00:08:34;;;;;;;0.03;0.03;;;16.70;51.50;;;;;;4157487;28;20049;-45
2021/04/29 00:10:56;;;;;;;1.02;1.02;;;16.80;51.30;;;;;;4157317;28;20060;-47
2021/04/29 00:13:20;;;;;;;0.75;0.75;;;17.00;50.70;;;;;;4157632;28;20500;-45
2021/04/29 00:15:44;;;;;;;0.10;0.10;;;17.20;50.40;;;;;;4157638;28;20503;-46
2021/04/29 00:18:08;;;;;;;0.10;0.10;;;17.30;50.20;;;;;;4156879;28;20183;-45
2021/04/29 00:20:29;;;;;;;0.15;0.15;;;17.30;50.10;;;;;;4157272;28;20045;-45
2021/04/29 00:22:50;;;;;;;2.67;0.47;;;17.30;50.20;;;;;;4157349;28;20516;-48
2021/04/29 00:25:12;;;;;;;0.55;0.55;;;17.20;50.50;;;;;;4140814;28;20049;-47
2021/04/29 00:27:32;;;;;;;2.92;1.20;;;17.10;50.50;;;;;;4149107;28;20077;-48
2021/04/29 00:30:00;;;;;;;0.70;0.65;;;17.10;50.90;;;;;;4157661;28;20444;-46
2021/04/29 00:32:22;;;;;;;0.65;0.65;;;17.00;51.10;;;;;;4157646;28;20057;-49
2021/04/29 00:34:46;;;;;;;0.43;0.43;;;17.00;51.30;;;;;;4157597;28;20131;-47
2021/04/29 00:37:07;;;;;;;0.60;0.60;;;17.00;51.20;;;;;;4157269;28;20137;-47
2021/04/29 00:39:27;;;;;;;0.13;0.13;;;17.10;51.00;;;;;;4157520;28;20045;-47
2021/04/29 00:41:48;;;;;;;0.70;0.70;;;17.20;50.80;;;;;;4157158;28;20136;-46
2021/04/29 00:44:09;;;;;;;0.00;0.00;;;17.20;50.90;;;;;;4157425;28;20050;-47
2021/04/29 00:46:30;;;;;;;;;;;17.10;50.90;;;;;;4158668;28;20053;-47
2021/04/29 00:48:52;;;;;;;0.45;0.30;;;17.10;51.00;;;;;;4143754;28;19929;-51
2021/04/29 00:51:14;;;;;;;0.13;0.13;;;17.00;51.10;;;;;;4144137;28;20488;-51
2021/04/29 00:53:38;;;;;;;0.35;0.35;;;17.00;51.40;;;;;;4158155;28;20227;-45
2021/04/29 00:55:59;;;;;;;0.93;0.90;;;16.90;51.50;;;;;;4144333;28;20057;-45
2021/04/29 00:58:26;;;;;;;0.00;0.00;;;16.80;51.70;;;;;;4131500;28;20049;-47
2021/04/29 01:00:47;;;;;;;0.17;0.17;;;16.70;51.90;;;;;;4160296;28;20745;-46
2021/04/29 01:03:14;;;;;;;0.00;0.00;;;16.70;52.10;;;;;;4160203;28;20492;-50
2021/04/29 01:05:39;;;;;;;0.65;0.65;;;16.80;52.00;;;;;;4160536;28;20049;-45
2021/04/29 01:08:04;;;;;;;0.32;0.32;;;17.00;51.50;;;;;;4160540;28;20050;-45
2021/04/29 01:10:33;;;;;;;0.32;0.32;;;17.20;51.00;;;;;;4159832;28;20049;-46
2021/04/29 01:13:02;;;;;;;1.75;1.08;;;17.30;50.80;;;;;;4160224;28;20127;-47
2021/04/29 01:15:24;;;;;;;0.20;0.20;;;17.30;50.80;;;;;;4160047;28;20085;-48
2021/04/29 01:17:48;;;;;;;0.10;0.10;;;17.20;50.90;;;;;;4147420;28;20049;-46
2021/04/29 01:20:13;;;;;;;0.00;0.00;;;17.20;51.20;;;;;;4159911;28;20053;-45
2021/04/29 01:22:40;;;;;;;0.20;0.20;;;17.10;51.50;;;;;;4159647;28;20415;-46
2021/04/29 01:25:06;;;;;;;0.10;0.10;;;17.10;51.70;;;;;;4159734;28;20496;-45
2021/04/29 01:27:28;;;;;;;0.30;0.30;;;17.00;51.80;;;;;;4159761;28;20562;-50
2021/04/29 01:29:51;;;;;;;0.93;0.93;;;16.90;52.00;;;;;;4159949;28;20055;-45
2021/04/29 01:32:12;;;;;;;1.42;0.43;;;16.80;52.10;;;;;;4159466;28;20455;-47
2021/04/29 01:34:37;;;;;;;0.20;0.20;;;16.80;52.30;;;;;;4159708;28;20466;-45
2021/04/29 01:36:58;;;;;;;0.40;0.40;;;16.90;52.10;;;;;;4159664;28;20053;-45
2021/04/29 01:39:19;;;;;;;;;;;17.00;51.80;;;;;;4160074;28;20531;-45
2021/04/29 01:41:44;;;;;;;0.00;0.00;;;17.10;51.80;;;;;;4159577;28;20003;-51
2021/04/29 01:44:07;;;;;;;12.95;1.20;;;17.10;51.80;;;;;;4159556;28;20052;-47
2021/04/29 01:46:28;;;;;;;0.00;0.00;;;17.10;51.80;;;;;;4159356;28;20065;-47
2021/04/29 01:48:50;;;;;;;;;;;17.00;51.70;;;;;;4160314;28;20041;-45
2021/04/29 01:51:12;;;;;;;0.10;0.10;;;17.00;51.90;;;;;;4159505;28;19927;-45
2021/04/29 01:53:35;;;;;;;1.13;1.13;;;16.90;52.20;;;;;;4143022;28;20050;-45
2021/04/29 01:55:56;;;;;;;0.10;0.10;;;16.80;52.40;;;;;;4148643;28;20061;-46
2021/04/29 01:58:17;;;;;;;1.35;1.35;;;16.80;52.60;;;;;;4150491;28;20053;-45
2021/04/29 02:00:39;;;;;;;1.00;1.00;;;16.80;52.60;;;;;;4159321;28;20120;-48
2021/04/29 02:03:00;;;;;;;0.17;0.17;;;17.00;52.30;;;;;;4159302;28;20045;-45
2021/04/29 02:05:21;;;;;;;0.80;0.80;;;17.20;51.90;;;;;;4159417;28;20579;-47
2021/04/29 02:07:48;;;;;;;0.00;0.00;;;17.30;51.70;;;;;;4144702;28;20049;-46
2021/04/29 02:10:16;;;;;;;0.00;0.00;;;17.30;51.50;;;;;;4159383;28;20077;-45
2021/04/29 02:12:41;;;;;;;0.30;0.30;;;17.30;51.40;;;;;;4158928;28;20488;-48
2021/04/29 02:15:08;;;;;;;0.65;0.65;;;17.20;51.60;;;;;;4158991;28;20057;-48
2021/04/29 02:17:35;;;;;;;0.00;0.00;;;17.10;51.80;;;;;;4159069;28;20053;-47
2021/04/29 02:19:57;;;;;;;0.82;0.82;;;17.00;52.00;;;;;;4159207;28;20046;-46
2021/04/29 02:22:20;;;;;;;0.40;0.40;;;17.00;52.20;;;;;;4158926;28;20111;-47
2021/04/29 02:24:46;;;;;;;0.43;0.43;;;16.90;52.40;;;;;;4158367;28;20055;-46
2021/04/29 02:27:09;;;;;;;0.08;0.08;;;16.80;52.50;;;;;;4158819;28;20107;-45
2021/04/29 02:29:31;;;;;;;0.20;0.20;;;16.70;52.80;;;;;;4158729;28;20562;-47
2021/04/29 02:31:53;;;;;;;0.57;0.57;;;16.70;53.10;;;;;;4158579;28;20385;-44
2021/04/29 02:34:19;;;;;;;0.00;0.00;;;16.70;53.00;;;;;;4158487;28;20105;-46
2021/04/29 02:36:41;;;;;;;0.10;0.10;;;16.90;52.70;;;;;;4158600;28;20052;-46
2021/04/29 02:39:05;;;;;;;0.22;0.22;;;17.00;52.30;;;;;;4158632;28;20049;-45
2021/04/29 02:41:33;;;;;;;1.85;1.08;;;17.10;52.00;;;;;;4158710;28;20060;-53
2021/04/29 02:43:54;;;;;;;0.52;0.52;;;17.20;51.90;;;;;;4158541;28;20046;-48
2021/04/29 02:46:19;;;;;;;1.08;1.08;;;17.10;52.00;;;;;;4158621;28;20057;-46
2021/04/29 02:48:41;;;;;;;0.05;0.05;;;17.20;52.00;;;;;;4158755;28;20061;-46
2021/04/29 02:51:03;;;;;;;;;;;17.20;52.00;;;;;;4158702;28;20069;-46
2021/04/29 02:53:27;;;;;;;0.22;0.22;;;17.20;52.00;;;;;;4150989;28;19924;-45
2021/04/29 02:55:48;;;;;;;;;;;17.20;52.10;;;;;;4158745;28;20136;-47
2021/04/29 02:58:10;;;;;;;0.00;0.00;;;17.20;52.20;;;;;;4158636;28;19921;-47
2021/04/29 03:00:32;;;;;;;0.30;0.30;;;17.10;52.40;;;;;;4158166;28;20057;-47
2021/04/29 03:02:53;;;;;;;0.32;0.32;;;17.00;52.60;;;;;;4157820;28;20132;-45
2021/04/29 03:05:15;;;;;;;0.75;0.75;;;17.00;52.90;;;;;;4158246;28;20136;-45
2021/04/29 03:07:45;;;;;;;1.75;1.50;;;16.90;53.10;;;;;;4157636;28;20107;-45
2021/04/29 03:10:12;;;;;;;1.00;1.00;;;16.80;53.30;;;;;;4157978;28;20077;-47
2021/04/29 03:12:32;;;;;;;0.68;0.68;;;16.70;53.60;;;;;;4158087;28;20050;-46
2021/04/29 03:14:53;;;;;;;0.20;0.20;;;16.80;53.70;;;;;;4158245;28;20075;-45
2021/04/29 03:17:14;;;;;;;1.08;0.57;;;16.90;53.50;;;;;;4158330;28;20060;-47
2021/04/29 03:19:35;;;;;;;0.17;0.17;;;16.90;53.10;;;;;;4157818;28;20049;-46
2021/04/29 03:21:56;;;;;;;0.00;0.00;;;17.00;53.20;;;;;;4157886;28;20053;-48
2021/04/29 03:24:17;;;;;;;0.45;0.45;;;17.00;53.10;;;;;;4157934;28;20155;-47
2021/04/29 03:26:38;;;;;;;0.10;0.10;;;17.00;53.10;;;;;;4158133;28;20490;-47
2021/04/29 03:28:59;;;;;;;0.10;0.10;;;17.00;53.30;;;;;;4158462;28;20178;-46
2021/04/29 03:31:20;;;;;;;0.30;0.30;;;17.10;53.10;;;;;;4141781;28;20088;-48
2021/04/29 03:33:41;;;;;;;;;;;17.30;52.70;;;;;;4153046;28;20487;-45
2021/04/29 03:36:02;;;;;;;0.43;0.43;;;17.30;52.60;;;;;;4157627;28;19975;-47
2021/04/29 03:38:23;;;;;;;0.45;0.40;;;17.30;52.70;;;;;;4157980;28;20077;-48
2021/04/29 03:40:45;;;;;;;0.20;0.20;;;17.20;52.70;;;;;;4157472;28;20064;-48
2021/04/29 03:43:06;;;;;;;0.00;0.00;;;17.20;52.80;;;;;;4157711;28;20701;-47
2021/04/29 03:45:27;;;;;;;1.10;0.45;;;17.10;52.90;;;;;;4157879;28;20057;-47
2021/04/29 03:47:48;;;;;;;;;;;17.10;53.20;;;;;;4157812;28;20134;-49
2021/04/29 03:50:11;;;;;;;0.20;0.20;;;17.00;53.40;;;;;;4157897;28;19920;-48
2021/04/29 03:52:33;;;;;;;0.00;0.00;;;16.90;53.60;;;;;;4157593;28;20049;-49
2021/04/29 03:54:54;;;;;;;0.20;0.20;;;16.80;53.80;;;;;;4157903;28;20045;-46
2021/04/29 03:57:19;;;;;;;0.00;0.00;;;16.80;54.00;;;;;;4157792;28;20728;-49
2021/04/29 03:59:40;;;;;;;1.33;1.15;;;16.70;54.20;;;;;;4142905;28;20046;-45
2021/04/29 04:02:00;;;;;;;0.43;0.43;;;16.80;54.10;;;;;;4157641;28;20059;-48
2021/04/29 04:04:22;;;;;;;1.00;0.63;;;17.00;53.80;;;;;;4157289;28;20476;-51
2021/04/29 04:06:43;;;;;;;0.10;0.10;;;17.00;53.60;;;;;;4157493;28;20053;-50
2021/04/29 04:09:04;;;;;;;0.45;0.45;;;17.00;53.60;;;;;;4157863;28;20103;-48
2021/04/29 04:11:25;;;;;;;;;;;17.00;53.60;;;;;;4157926;28;20042;-45
2021/04/29 04:13:48;;;;;;;0.10;0.10;;;17.00;53.80;;;;;;4157347;28;19929;-48
2021/04/29 04:16:11;;;;;;;0.43;0.43;;;16.90;54.00;;;;;;4157463;28;20128;-47
2021/04/29 04:18:32;;;;;;;0.77;0.77;;;16.80;54.10;;;;;;4157431;28;20514;-48
2021/04/29 04:20:53;;;;;;;0.38;0.38;;;16.70;54.30;;;;;;4156930;28;20111;-45
2021/04/29 04:23:17;;;;;;;0.40;0.40;;;16.60;54.40;;;;;;4160887;28;20492;-47
2021/04/29 04:25:38;;;;;;;0.40;0.40;;;16.70;54.50;;;;;;4150580;28;20041;-49
2021/04/29 04:27:59;;;;;;;0.75;0.75;;;17.00;54.10;;;;;;4160892;28;20056;-50
2021/04/29 04:30:21;;;;;;;;;;;17.10;53.60;;;;;;4161057;28;20420;-47
2021/04/29 04:32:43;;;;;;;0.35;0.35;;;17.20;53.40;;;;;;4160412;28;19932;-46
2021/04/29 04:35:05;;;;;;;0.22;0.22;;;17.20;53.50;;;;;;4160960;28;20056;-46
2021/04/29 04:37:26;;;;;;;0.40;0.40;;;17.20;53.40;;;;;;4161098;28;20072;-46
2021/04/29 04:39:47;;;;;;;;;;;17.20;53.40;;;;;;4160957;28;20128;-48
2021/04/29 04:42:08;;;;;;;0.30;0.30;;;17.10;53.50;;;;;;4160874;28;19929;-45
2021/04/29 04:44:29;;;;;;;0.30;0.30;;;17.10;53.60;;;;;;4161010;28;20065;-46
2021/04/29 04:46:51;;;;;;;;;;;17.10;53.80;;;;;;4144852;28;20480;-45
2021/04/29 04:49:11;;;;;;;0.10;0.10;;;17.10;53.90;;;;;;4160588;28;20338;-45
2021/04/29 04:51:32;;;;;;;0.88;0.88;;;17.00;54.00;;;;;;4160254;28;20111;-46
2021/04/29 04:53:54;;;;;;;0.63;0.63;;;16.90;54.00;;;;;;4160689;28;20122;-47
2021/04/29 04:56:14;;;;;;;0.75;0.75;;;16.90;54.20;;;;;;4160108;28;20055;-46
2021/04/29 04:58:36;;;;;;;0.40;0.40;;;16.90;54.40;;;;;;4160852;28;20091;-47
2021/04/29 05:00:57;;;;;;;0.40;0.40;;;16.80;54.60;;;;;;4159127;28;20049;-45
2021/04/29 05:03:22;;;;;;;0.28;0.28;;;16.70;54.70;;;;;;4145144;28;20058;-46
2021/04/29 05:05:44;;;;;;;1.02;1.02;;;16.70;54.90;;;;;;4160301;28;20065;-43
2021/04/29 05:08:06;;;;;;;0.65;0.65;;;16.80;54.90;;;;;;4159840;28;20099;-48
2021/04/29 05:10:27;;;;;;;0.38;0.38;;;17.10;54.80;;;;;;4160171;28;20049;-50
2021/04/29 05:12:48;;;;;;;0.32;0.32;;;17.30;54.50;;;;;;4153270;28;20128;-47
2021/04/29 05:15:10;;;;;;;2.58;1.55;;;17.40;54.20;;;;;;4144027;28;20054;-45
2021/04/29 05:17:30;;;;;;;;;;;17.40;54.00;;;;;;4144344;28;20049;-45
2021/04/29 05:19:52;;;;;;;0.30;0.30;;;17.40;54.00;;;;;;4147301;28;19925;-47
2021/04/29 05:22:15;;;;;;;0.00;0.00;;;17.30;54.10;;;;;;4158216;28;20775;-46
2021/04/29 05:24:36;;;;;;;0.75;0.75;;;17.20;54.30;;;;;;4153760;28;20496;-45
2021/04/29 05:26:57;;;;;;;0.20;0.20;;;17.10;54.50;;;;;;4159467;28;20500;-46
2021/04/29 05:29:18;;;;;;;0.45;0.45;;;17.00;54.70;;;;;;4159193;28;20107;-44
2021/04/29 05:31:39;;;;;;;0.35;0.35;;;17.00;54.90;;;;;;4143253;28;20050;-47
2021/04/29 05:34:00;;;;;;;0.63;0.63;;;16.90;55.20;;;;;;4143544;28;20057;-46
2021/04/29 05:36:22;;;;;;;0.80;0.55;;;16.80;55.40;;;;;;4128887;28;20134;-45
2021/04/29 05:38:43;;;;;;;1.27;1.23;;;16.70;55.60;;;;;;4143145;28;20558;-49
2021/04/29 05:41:04;;;;;;;0.05;0.05;;;16.60;55.60;;;;;;4143176;28;20489;-45
2021/04/29 05:43:26;;;;;;;2.78;1.75;;;16.60;55.90;;;;;;4143198;28;20042;-45
2021/04/29 05:45:47;;;;;;;0.30;0.30;;;16.50;55.90;;;;;;4142958;28;20052;-44
2021/04/29 05:48:08;;;;;;;;;;;16.50;56.00;;;;;;4143552;28;20042;-48
2021/04/29 05:50:30;;;;;;;1.02;1.02;;;16.40;56.20;;;;;;4142872;28;20020;-46
2021/04/29 05:52:51;;;;;;;;;;;16.40;56.30;;;;;;4155949;28;20415;-44
2021/04/29 05:55:16;;;;;;;0.75;0.75;;;16.40;56.40;;;;;;4159589;28;19925;-48
2021/04/29 05:57:37;;;;;;;3.00;1.75;;;16.40;56.50;;;;;;4142330;28;20053;-45
2021/04/29 05:59:58;;;;;;;4.28;0.88;;;16.60;56.20;;;;;;4142968;28;20566;-47
2021/04/29 06:02:20;;;;;;;0.85;0.85;;;16.90;55.40;;;;;;4143093;28;20125;-45
2021/04/29 06:04:41;;;;;;;2.10;0.57;;;17.10;55.00;;;;;;4142450;28;20046;-44
2021/04/29 06:07:02;;;;;;;0.25;0.25;;;17.10;54.90;;;;;;4142846;28;20501;-46
2021/04/29 06:09:25;;;;;;;0.38;0.38;;;17.10;55.00;;;;;;4141389;28;20060;-46
2021/04/29 06:11:46;;;;;;;0.38;0.38;;;17.10;55.10;;;;;;4147700;28;20045;-44
2021/04/29 06:14:06;;;;;;;0.25;0.25;;;17.00;55.30;;;;;;4158256;28;20127;-44
2021/04/29 06:16:27;;;;;;;0.88;0.85;;;16.90;55.50;;;;;;4158298;28;20045;-45
2021/04/29 06:18:49;;;;;;;1.73;1.65;;;16.90;55.70;;;;;;4158246;28;20067;-53
2021/04/29 06:21:10;;;;;;;;;;;16.90;56.00;;;;;;4142959;28;20052;-50
2021/04/29 06:23:33;;;;;;;0.17;0.17;;;16.80;56.70;;;;;;4157232;28;19921;-49
2021/04/29 06:25:57;;;;;;;1.38;1.27;;;16.80;56.80;;;;;;4156704;28;20068;-47
2021/04/29 06:28:18;;;;;;;1.30;1.20;;;16.70;56.80;;;;;;4158023;28;20140;-47
2021/04/29 06:30:41;;;;;;;7.78;1.65;;;16.70;57.10;;;;;;4147930;28;20134;-45
2021/04/29 06:33:02;;;;;;;25.42;5.97;;;16.60;57.30;;;;;;4158469;28;20049;-51
2021/04/29 06:35:23;;;;;;;1.55;0.95;;;16.50;57.40;;;;;;4158543;28;20049;-45
2021/04/29 06:37:44;;;;;;;21.60;2.40;;;16.50;57.50;;;;;;4158704;28;20045;-45
2021/04/29 06:40:06;;;;;;;0.20;0.20;;;16.50;57.60;;;;;;4143372;28;20065;-47
2021/04/29 06:42:28;;;;;;;1.35;1.35;;;16.50;57.60;;;;;;4158802;28;20049;-46
2021/04/29 06:44:50;;;;;;;0.40;0.40;;;16.50;57.60;;;;;;4158139;28;20136;-45
2021/04/29 06:47:11;;;;;;;0.52;0.52;;;16.40;57.60;;;;;;4157321;28;20045;-45
2021/04/29 06:49:33;;;;;;;0.28;0.28;;;16.40;57.60;;;;;;4142227;28;20061;-46
2021/04/29 06:51:54;;;;;;;0.00;0.00;;;16.30;57.70;;;;;;4157526;28;20049;-44
2021/04/29 06:54:15;;;;;;;;;;;16.30;57.70;;;;;;4143142;28;20077;-45
2021/04/29 06:56:36;;;;;;;0.30;0.30;;;16.30;57.80;;;;;;4158942;28;19925;-46
2021/04/29 06:58:58;;;;;;;0.00;0.00;;;16.20;57.90;;;;;;4142745;28;20484;-44
2021/04/29 07:01:19;;;;;;;0.20;0.20;;;16.20;58.00;;;;;;4142428;28;20054;-52
2021/04/29 07:03:40;;;;;;;0.10;0.10;;;16.10;58.10;;;;;;4141889;28;20049;-44
2021/04/29 07:06:02;;;;;;;0.55;0.55;;;16.10;58.10;;;;;;4157349;28;20049;-46
2021/04/29 07:08:23;;;;;;;0.68;0.68;;;16.10;58.20;;;;;;4158513;28;20385;-46
2021/04/29 07:10:43;;;;;;;2.17;0.60;;;16.10;58.40;;;;;;4158585;28;20049;-45
2021/04/29 07:13:05;;;;;;;0.95;0.95;;;16.20;58.20;;;;;;4158491;28;20042;-45
2021/04/29 07:15:27;;;;;;;;;;;16.40;57.80;;;;;;4158442;28;20482;-45
2021/04/29 07:17:48;;;;;;;0.32;0.32;;;16.40;57.60;;;;;;4158715;28;19921;-44
2021/04/29 07:20:11;;;;;;;0.90;0.90;;;16.50;57.60;;;;;;4140843;28;20049;-44
2021/04/29 07:22:32;;;;;;;4.75;2.53;;;16.50;57.50;;;;;;4142125;28;20050;-46
2021/04/29 07:24:53;;;;;;;0.68;0.68;;;16.50;57.60;;;;;;4142122;28;20056;-47
2021/04/29 07:27:14;;;;;;;0.10;0.10;;;16.40;57.60;;;;;;4142190;28;20046;-45
2021/04/29 07:29:35;;;;;;;0.85;0.85;;;16.40;57.70;;;;;;4141968;28;20048;-44
2021/04/29 07:31:57;;;;;;;0.15;0.15;;;16.50;57.60;;;;;;4158018;28;20037;-44
2021/04/29 07:34:17;;;;;;;0.63;0.63;;;16.50;57.60;;;;;;4157911;28;20057;-48
2021/04/29 07:36:39;;;;;;;1.52;1.42;;;16.50;57.40;;;;;;4157756;28;20068;-45
2021/04/29 07:38:59;;;;;;;2.45;1.88;;;16.70;56.90;;;;;;4157872;28;20132;-44
2021/04/29 07:41:24;;;;;;;;;;;17.00;56.10;;;;;;4158391;28;20092;-44
2021/04/29 07:43:45;;;;;;;1.92;1.83;;;17.30;55.40;;;;;;4158381;28;20038;-45
2021/04/29 07:46:06;;;;;;;1.05;1.05;;;17.40;55.70;;;;;;4158111;28;20536;-45
2021/04/29 07:48:28;;;;;;;0.40;0.40;;;17.50;54.90;;;;;;4141740;28;20057;-46
2021/04/29 07:50:50;;;;;;;0.13;0.13;;;17.50;54.90;;;;;;4141829;28;20057;-47
2021/04/29 07:53:11;;;;;;;0.65;0.65;;;17.50;55.00;;;;;;4157735;28;20045;-46
2021/04/29 07:55:32;;;;;;;0.75;0.75;;;17.40;55.10;;;;;;4157773;28;20038;-45
2021/04/29 07:57:53;;;;;;;0.25;0.25;;;17.50;55.20;;;;;;4158188;28;20045;-45
2021/04/29 08:00:15;;;;;;;0.45;0.45;;;17.50;55.20;;;;;;4141531;28;20042;-46
2021/04/29 08:02:36;;;;;;;0.68;0.68;;;17.50;55.10;;;;;;4143347;28;20054;-44
2021/04/29 08:04:59;;;;;;;1.65;1.55;;;17.40;55.00;;;;;;4141516;28;20050;-50
2021/04/29 08:07:20;;;;;;;0.25;0.25;;;17.30;55.10;;;;;;4156902;28;20053;-51
2021/04/29 08:09:41;;;;;;;0.40;0.40;;;17.40;55.20;;;;;;4151717;28;20058;-47
2021/04/29 08:12:02;;;;;;;0.95;0.95;;;17.50;55.10;;;;;;4126290;28;20054;-44
2021/04/29 08:14:23;;;;;;;0.38;0.38;;;17.60;55.00;;;;;;4148734;28;20050;-45
2021/04/29 08:16:44;;;;;;;0.45;0.45;;;17.60;54.80;;;;;;4141806;28;20459;-47
2021/04/29 08:19:06;;;;;;;;;;;17.60;54.80;;;;;;4142247;28;20038;-45
2021/04/29 08:21:43;;;;;;;1.65;1.65;;;17.60;55.00;;;;;;4141427;28;19997;-47
2021/04/29 08:24:05;;;;;;;0.15;0.15;;;17.50;55.20;;;;;;4158061;28;20046;-47
2021/04/29 08:26:26;;;;;;;0.20;0.20;;;17.30;55.40;;;;;;4134681;28;20713;-44
2021/04/29 08:28:47;;;;;;;0.22;0.22;;;17.30;55.70;;;;;;4140702;28;20077;-44
2021/04/29 08:31:08;;;;;;;0.93;0.88;;;17.20;56.00;;;;;;4141621;28;20467;-45
2021/04/29 08:33:30;;;;;;;0.35;0.35;;;17.10;56.30;;;;;;4141485;28;20046;-46
2021/04/29 08:35:52;;;;;;;0.65;0.65;;;17.00;56.50;;;;;;4141743;28;20061;-49
2021/04/29 08:38:14;;;;;;;0.75;0.68;;;16.90;57.50;;;;;;4141425;28;20052;-45
2021/04/29 08:40:35;;;;;;;0.80;0.45;;;16.80;57.20;;;;;;4141442;28;20050;-44
2021/04/29 08:42:57;;;;;;;;;;;16.70;57.50;;;;;;4141848;28;20059;-44
2021/04/29 08:45:18;;;;;;;0.10;0.10;;;16.60;57.70;;;;;;4141258;28;20016;-49
2021/04/29 08:47:40;;;;;;;0.30;0.30;;;16.60;57.90;;;;;;4141265;28;20064;-50
2021/04/29 08:50:09;;;;;;;1.10;0.75;;;16.50;58.20;;;;;;4125395;28;20412;-46
2021/04/29 08:52:30;;;;;;;0.45;0.45;;;16.50;58.30;;;;;;4125268;28;20443;-46
2021/04/29 08:54:52;;;;;;;;;;;16.40;58.50;;;;;;4125984;28;20105;-44
2021/04/29 08:57:13;;;;;;;0.20;0.17;;;16.40;58.70;;;;;;4125362;28;19929;-45
2021/04/29 08:59:34;;;;;;;;;;;16.30;58.90;;;;;;4125594;28;20684;-44
2021/04/29 09:01:56;;;;;;;0.77;0.77;;;16.30;59.10;;;;;;4155963;28;19925;-44
2021/04/29 09:04:19;;;;;;;0.43;0.43;;;16.20;59.20;;;;;;4141476;28;20061;-45
2021/04/29 09:06:40;;;;;;;1.10;1.10;;;16.20;59.40;;;;;;4141076;28;20522;-46
2021/04/29 09:09:01;;;;;;;0.77;0.77;;;16.20;59.50;;;;;;4160244;28;20140;-46
2021/04/29 09:11:23;;;;;;;0.00;0.00;;;16.20;59.60;;;;;;4160332;28;20389;-46
2021/04/29 09:13:54;;;;;;;0.15;0.15;;;16.10;59.80;;;;;;4159847;28;20049;-48
2021/04/29 09:16:15;;;;;;;;;;;16.10;60.00;;;;;;4160326;28;20471;-45
2021/04/29 09:18:37;;;;;;;0.10;0.10;;;16.10;60.40;;;;;;4144154;28;19948;-45
2021/04/29 09:21:05;;;;;;;0.98;0.98;;;16.10;60.60;;;;;;4144090;28;20277;-45
2021/04/29 09:23:28;;;;;;;0.35;0.35;;;16.00;60.80;;;;;;4143818;28;21052;-46
2021/04/29 09:25:54;;;;;;;0.70;0.70;;;16.00;61.10;;;;;;4160160;28;20053;-48
2021/04/29 09:28:16;;;;;;;1.08;1.08;;;16.00;62.00;;;;;;4159529;28;20065;-46
2021/04/29 09:30:38;;;;;;;0.25;0.25;;;16.00;61.10;;;;;;4159788;28;20041;-46
2021/04/29 09:33:01;;;;;;;0.68;0.68;;;16.00;61.10;;;;;;4159999;28;20049;-45
2021/04/29 09:35:22;;;;;;;0.68;0.68;;;16.00;61.30;;;;;;4159573;28;20057;-44
2021/04/29 09:37:43;;;;;;;10.68;2.47;;;15.90;61.50;;;;;;4148070;28;20058;-46
2021/04/29 09:40:06;;;;;;;0.52;0.52;;;15.90;61.70;;;;;;4159409;28;20046;-47
2021/04/29 09:42:33;;;;;;;0.38;0.38;;;15.90;61.70;;;;;;4159300;28;20754;-46
2021/04/29 09:44:55;;;;;;;0.38;0.35;;;15.80;61.80;;;;;;4144708;28;20135;-46
2021/04/29 09:47:16;;;;;;;0.90;0.90;;;15.80;61.90;;;;;;4159327;28;20124;-47
2021/04/29 09:49:38;;;;;;;0.17;0.17;;;15.80;62.10;;;;;;4159418;28;20053;-46
2021/04/29 09:52:01;;;;;;;0.65;0.65;;;15.80;62.20;;;;;;4159321;28;20602;-50
2021/04/29 09:54:27;;;;;;;18.00;1.73;;;15.80;62.20;;;;;;4159500;28;20049;-50
2021/04/29 09:56:53;;;;;;;1.35;1.25;;;15.80;62.30;;;;;;4159048;28;20045;-44
2021/04/29 09:59:14;;;;;;;1.35;1.25;;;15.70;62.50;;;;;;4159129;28;20526;-42
2021/04/29 10:01:36;;;;;;;;;;;15.70;62.70;;;;;;4158995;28;20100;-47
2021/04/29 10:03:58;;;;;;;;;;;15.70;62.50;;;;;;4143303;28;19933;-47
2021/04/29 10:06:19;;;;;;;0.25;0.25;;;15.70;62.50;;;;;;4151870;28;19921;-46
2021/04/29 10:08:40;;;;;;;;;;;15.60;62.40;;;;;;4159703;28;20049;-45
2021/04/29 10:11:02;;;;;;;1.75;1.00;;;15.60;62.50;;;;;;4158294;28;19928;-46
2021/04/29 10:13:29;;;;;;;4.78;1.30;;;15.60;62.40;;;;;;4158841;28;20492;-45
2021/04/29 10:15:50;;;;;;;0.57;0.57;;;15.60;62.50;;;;;;4157322;28;20471;-50
2021/04/29 10:18:13;;;;;;;0.10;0.10;;;15.60;62.50;;;;;;4159072;28;20060;-47
2021/04/29 10:20:38;;;;;;;0.25;0.25;;;15.60;62.50;;;;;;4146330;28;20065;-49
2021/04/29 10:23:00;;;;;;;1.00;0.90;;;15.60;62.50;;;;;;4159712;28;20053;-47
2021/04/29 10:25:29;;;;;;;0.15;0.15;;;15.60;62.50;;;;;;4159361;28;20063;-47
2021/04/29 10:27:55;;;;;;;0.20;0.20;;;15.60;62.50;;;;;;4159385;28;20073;-46
2021/04/29 10:30:20;;;;;;;0.20;0.20;;;15.60;62.50;;;;;;4158648;28;20049;-45
2021/04/29 10:32:41;;;;;;;0.32;0.32;;;15.60;62.60;;;;;;4143142;28;20099;-45
2021/04/29 10:35:15;;;;;;;0.25;0.25;;;15.60;62.70;;;;;;4158810;28;20420;-49
2021/04/29 10:37:36;;;;;;;0.55;0.55;;;15.60;62.90;;;;;;4158354;28;20049;-48
2021/04/29 10:39:59;;;;;;;0.20;0.20;;;15.60;62.80;;;;;;4158772;28;20119;-47
2021/04/29 10:42:22;;;;;;;0.77;0.77;;;15.60;62.90;;;;;;4158773;28;20540;-45
2021/04/29 10:44:45;;;;;;;0.35;0.35;;;15.60;62.90;;;;;;4158692;28;20053;-50
2021/04/29 10:47:06;;;;;;;2.33;2.22;;;15.60;63.00;;;;;;4158958;28;20504;-49
2021/04/29 10:49:30;;;;;;;0.52;0.52;;;15.60;63.00;;;;;;4157947;28;20052;-47
2021/04/29 10:51:52;;;;;;;0.10;0.10;;;15.50;63.20;;;;;;4158572;28;20153;-45
2021/04/29 10:54:18;;;;;;;0.28;0.28;;;15.60;63.40;;;;;;4158771;28;20412;-45
2021/04/29 10:56:40;;;;;;;0.98;0.98;;;15.50;63.30;;;;;;4158105;28;20045;-44
2021/04/29 10:59:09;;;;;;;0.20;0.20;;;15.50;63.40;;;;;;4158440;28;20480;-46
2021/04/29 11:01:39;;;;;;;2.00;0.85;;;15.60;63.60;;;;;;4158434;28;20041;-46
2021/04/29 11:04:01;;;;;;;0.50;0.50;;;15.60;63.70;;;;;;4158391;28;20412;-48
2021/04/29 11:06:33;;;;;;;0.00;0.00;;;15.50;63.70;;;;;;4142519;28;20057;-47
2021/04/29 11:08:56;;;;;;;0.00;0.00;;;15.50;63.60;;;;;;4158636;28;20065;-51
2021/04/29 11:11:26;;;;;;;0.00;0.00;;;15.60;63.70;;;;;;4142510;28;20050;-52
2021/04/29 11:14:02;;;;;;;1.00;1.00;;;15.50;63.80;;;;;;4142005;28;20121;-47
2021/04/29 11:16:23;;;;;;;0.17;0.17;;;15.50;63.80;;;;;;4142106;28;20050;-45
2021/04/29 11:18:45;;;;;;;5.18;0.90;;;15.50;63.90;;;;;;4158010;28;20045;-45
2021/04/29 11:21:08;;;;;;;0.20;0.20;;;15.60;64.00;;;;;;4158126;28;20563;-46
2021/04/29 11:23:39;;;;;;;2.70;0.90;;;15.50;63.90;;;;;;4158457;28;20049;-46
2021/04/29 11:26:11;;;;;;;;;;;15.60;63.90;;;;;;4158897;28;20503;-48
2021/04/29 11:28:32;;;;;;;0.10;0.10;;;15.50;64.10;;;;;;4158731;28;19932;-46
2021/04/29 11:30:54;;;;;;;0.73;0.73;;;15.50;64.00;;;;;;4141834;28;20049;-45
2021/04/29 11:33:15;;;;;;;0.70;0.47;;;15.50;64.00;;;;;;4142074;28;20420;-49
2021/04/29 11:35:38;;;;;;;0.65;0.65;;;15.50;64.00;;;;;;4142087;28;20049;-48
2021/04/29 11:38:00;;;;;;;1.80;1.10;;;15.50;64.00;;;;;;4158104;28;20525;-50
2021/04/29 11:40:20;;;;;;;;;;;15.50;64.00;;;;;;4141105;28;20049;-46
2021/04/29 11:42:49;;;;;;;1.63;1.52;;;15.50;64.20;;;;;;4157965;28;19925;-45
2021/04/29 11:45:14;;;;;;;0.35;0.35;;;15.60;64.10;;;;;;4158047;28;20057;-45
2021/04/29 11:47:35;;;;;;;0.45;0.45;;;15.60;64.20;;;;;;4157822;28;20411;-45
2021/04/29 11:49:57;;;;;;;0.22;0.22;;;15.50;64.10;;;;;;4157764;28;20049;-45
2021/04/29 11:52:21;;;;;;;;;;;15.50;64.20;;;;;;4158208;28;20839;-47
2021/04/29 11:54:49;;;;;;;0.00;0.00;;;15.50;64.60;;;;;;4157612;28;19924;-45
2021/04/29 11:57:13;;;;;;;0.03;0.03;;;15.50;64.50;;;;;;4157362;28;20439;-45
2021/04/29 11:59:35;;;;;;;0.65;0.65;;;15.50;64.50;;;;;;4157663;28;20420;-45
2021/04/29 12:01:59;;;;;;;0.30;0.30;;;15.60;64.50;;;;;;4157842;28;20049;-48
2021/04/29 12:04:22;;;;;;;1.08;0.80;;;15.50;64.40;;;;;;4157716;28;20140;-46
2021/04/29 12:06:48;;;;;;;0.65;0.65;;;15.50;64.40;;;;;;4142866;28;20046;-45
2021/04/29 12:09:11;;;;;;;0.63;0.63;;;15.50;64.40;;;;;;4157801;28;20124;-45
2021/04/29 12:11:47;;;;;;;0.30;0.30;;;15.50;64.50;;;;;;4150728;28;20408;-47
2021/04/29 12:14:08;;;;;;;0.10;0.10;;;15.50;65.50;;;;;;4157464;28;20049;-48
2021/04/29 12:16:32;;;;;;;0.20;0.20;;;15.50;64.70;;;;;;4154318;28;20049;-45
2021/04/29 12:18:56;;;;;;;0.22;0.22;;;15.50;64.80;;;;;;4157485;28;20500;-45
2021/04/29 12:21:18;;;;;;;0.32;0.32;;;15.50;64.80;;;;;;4157356;28;20566;-47
2021/04/29 12:23:39;;;;;;;0.22;0.22;;;15.50;64.80;;;;;;4157556;28;20056;-49
2021/04/29 12:26:03;;;;;;;1.10;1.08;;;15.50;64.80;;;;;;4157568;28;20072;-45
2021/04/29 12:28:30;;;;;;;0.13;0.10;;;15.50;64.90;;;;;;4157620;28;21195;-45
2021/04/29 12:30:50;;;;;;;5.05;2.28;;;15.50;64.90;;;;;;4156996;28;20053;-45